createdAt,value
2022-08-14T00:02:52.381Z,17.54
2022-08-14T00:06:28.981Z,17.53
2022-08-14T00:10:50.494Z,17.54
2022-08-14T00:14:10.115Z,17.54
2022-08-14T00:17:58.320Z,17.57
2022-08-14T00:21:20.376Z,17.56
2022-08-14T00:24:57.136Z,17.54
2022-08-14T00:28:35.879Z,17.54
2022-08-14T00:32:52.280Z,17.53
2022-08-14T00:36:47.124Z,17.51
2022-08-14T00:39:56.290Z,17.46
2022-08-14T00:43:32.471Z,17.43
2022-08-14T00:47:10.796Z,17.41
2022-08-14T00:50:45.546Z,17.41
2022-08-14T00:54:22.332Z,17.38
2022-08-14T00:58:18.977Z,17.36
2022-08-14T01:01:50.296Z,17.35
2022-08-14T01:05:50.788Z,17.33
2022-08-14T01:09:11.685Z,17.30
2022-08-14T01:12:48.966Z,17.29
2022-08-14T01:16:28.076Z,17.30
2022-08-14T01:20:27.502Z,17.31
2022-08-14T01:23:54.045Z,17.32
2022-08-14T01:27:28.879Z,17.31
2022-08-14T01:31:16.079Z,17.29
2022-08-14T01:35:17.493Z,17.26
2022-08-14T01:38:49.018Z,17.24
2022-08-14T01:42:32.065Z,17.25
2022-08-14T01:46:06.780Z,17.22
2022-08-14T01:49:59.330Z,17.21
2022-08-14T01:53:22.572Z,17.20
2022-08-14T01:56:58.936Z,17.20
2022-08-14T02:00:40.274Z,17.20
2022-08-14T02:04:54.732Z,17.20
2022-08-14T02:08:22.393Z,17.20
2022-08-14T02:12:19.576Z,17.22
2022-08-14T02:15:50.302Z,17.22
2022-08-14T02:19:27.847Z,17.21
2022-08-14T02:23:01.883Z,17.19
2022-08-14T02:28:20.160Z,17.19
2022-08-14T02:30:26.928Z,17.24
2022-08-14T02:34:26.282Z,17.28
2022-08-14T02:37:49.938Z,17.25
2022-08-14T02:41:28.625Z,17.26
2022-08-14T02:45:02.804Z,17.24
2022-08-14T02:49:03.318Z,17.24
2022-08-14T02:52:57.810Z,17.25
2022-08-14T02:56:30.632Z,17.23
2022-08-14T02:59:54.244Z,17.22
2022-08-14T03:03:31.868Z,17.22
2022-08-14T03:07:26.061Z,17.24
2022-08-14T03:10:50.013Z,17.28
2022-08-14T03:14:27.623Z,17.31
2022-08-14T03:18:01.949Z,17.32
2022-08-14T03:21:39.834Z,17.28
2022-08-14T03:25:15.583Z,17.25
2022-08-14T03:29:14.133Z,17.25
2022-08-14T03:32:36.052Z,17.25
2022-08-14T03:37:51.281Z,17.24
2022-08-14T03:39:57.433Z,17.25
2022-08-14T03:43:33.717Z,17.24
2022-08-14T03:47:12.169Z,17.21
2022-08-14T03:50:54.151Z,17.19
2022-08-14T03:54:25.539Z,17.15
2022-08-14T03:58:01.186Z,17.17
2022-08-14T04:01:45.702Z,17.19
2022-08-14T04:05:43.265Z,17.20
2022-08-14T04:09:11.111Z,17.20
2022-08-14T04:12:51.725Z,17.22
2022-08-14T04:16:24.441Z,17.20
2022-08-14T04:20:04.099Z,17.19
2022-08-14T04:23:39.644Z,17.20
2022-08-14T04:27:16.776Z,17.21
2022-08-14T04:30:51.281Z,17.21
2022-08-14T04:34:28.410Z,17.21
2022-08-14T04:38:37.268Z,17.21
2022-08-14T04:42:20.482Z,17.20
2022-08-14T04:45:42.630Z,17.26
2022-08-14T04:49:19.289Z,17.34
2022-08-14T04:52:56.859Z,17.41
2022-08-14T04:56:34.144Z,17.48
2022-08-14T05:00:28.650Z,17.52
2022-08-14T05:04:08.947Z,17.52
2022-08-14T05:07:53.991Z,17.54
2022-08-14T05:11:36.717Z,17.52
2022-08-14T05:14:58.385Z,17.55
2022-08-14T05:19:18.891Z,17.55
2022-08-14T05:22:20.202Z,17.59
2022-08-14T05:26:03.032Z,17.65
2022-08-14T05:29:55.371Z,17.73
2022-08-14T05:33:38.288Z,17.72
2022-08-14T05:37:03.204Z,17.67
2022-08-14T05:40:36.947Z,17.69
2022-08-14T05:44:13.646Z,17.71
2022-08-14T05:48:32.914Z,17.75
2022-08-14T05:51:55.818Z,17.81
2022-08-14T05:55:32.495Z,17.88
2022-08-14T05:59:11.125Z,17.92
2022-08-14T06:03:07.564Z,17.91
2022-08-14T06:06:33.805Z,17.94
2022-08-14T06:10:09.094Z,17.96
2022-08-14T06:13:45.687Z,17.97
2022-08-14T06:17:20.421Z,18.01
2022-08-14T06:20:57.564Z,18.09
2022-08-14T06:24:34.879Z,18.17
2022-08-14T06:28:26.939Z,18.20
2022-08-14T06:31:54.634Z,18.22
2022-08-14T06:35:48.060Z,18.24
2022-08-14T06:39:11.085Z,18.27
2022-08-14T06:42:49.408Z,18.31
2022-08-14T06:46:34.349Z,18.32
2022-08-14T06:50:03.857Z,18.36
2022-08-14T06:53:38.201Z,18.34
2022-08-14T06:57:38.121Z,18.37
2022-08-14T07:01:27.031Z,18.41
2022-08-14T07:05:08.658Z,18.49
2022-08-14T07:08:32.752Z,18.52
2022-08-14T07:12:08.752Z,18.52
2022-08-14T07:15:55.481Z,18.54
2022-08-14T07:19:28.280Z,18.60
2022-08-14T07:23:09.116Z,18.63
2022-08-14T07:26:41.740Z,18.72
2022-08-14T07:30:34.756Z,18.77
2022-08-14T07:33:57.724Z,18.80
2022-08-14T07:37:34.383Z,18.82
2022-08-14T07:41:33.671Z,18.87
2022-08-14T07:45:14.619Z,18.84
2022-08-14T07:48:56.241Z,18.84
2022-08-14T07:52:37.611Z,18.86
2022-08-14T07:56:00.195Z,18.96
2022-08-14T07:59:54.861Z,19.02
2022-08-14T08:03:37.863Z,19.06
2022-08-14T08:07:00.761Z,19.08
2022-08-14T08:11:01.647Z,19.12
2022-08-14T08:14:22.155Z,19.20
2022-08-14T08:18:04.921Z,19.34
2022-08-14T08:21:43.899Z,19.46
2022-08-14T08:25:13.837Z,19.54
2022-08-14T08:29:08.850Z,19.59
2022-08-14T08:32:42.631Z,19.58
2022-08-14T08:36:30.000Z,19.70
2022-08-14T08:40:02.248Z,19.90
2022-08-14T08:43:34.321Z,20.02
2022-08-14T08:47:06.899Z,20.08
2022-08-14T08:54:19.857Z,20.24
2022-08-14T08:58:00.479Z,20.40
2022-08-14T09:01:32.688Z,20.60
2022-08-14T09:05:09.587Z,20.84
2022-08-14T09:08:47.247Z,21.02
2022-08-14T09:12:46.569Z,21.14
2022-08-14T09:16:19.058Z,21.29
2022-08-14T09:20:05.296Z,21.36
2022-08-14T09:23:34.506Z,21.42
2022-08-14T09:27:23.468Z,21.52
2022-08-14T09:30:52.990Z,21.64
2022-08-14T09:34:59.665Z,21.61
2022-08-14T09:38:43.380Z,21.68
2022-08-14T09:42:34.321Z,21.71
2022-08-14T09:46:00.701Z,21.73
2022-08-14T09:49:53.595Z,21.69
2022-08-14T09:54:18.428Z,21.73
2022-08-14T09:57:30.384Z,21.76
2022-08-14T10:01:00.759Z,21.77
2022-08-14T10:04:40.150Z,21.80
2022-08-14T10:08:26.134Z,21.81
2022-08-14T10:11:59.749Z,21.75
2022-08-14T10:15:30.006Z,21.68
2022-08-14T10:19:29.475Z,21.74
2022-08-14T10:23:15.054Z,21.64
2022-08-14T10:26:38.779Z,21.53
2022-08-14T10:30:22.187Z,21.48
2022-08-14T10:33:59.941Z,21.58
2022-08-14T10:37:50.109Z,21.86
2022-08-14T10:41:16.222Z,22.17
2022-08-14T10:44:52.787Z,22.33
2022-08-14T10:48:37.116Z,22.34
2022-08-14T10:52:09.980Z,22.34
2022-08-14T10:55:45.725Z,22.26
2022-08-14T10:59:47.491Z,22.40
2022-08-14T11:03:13.340Z,22.62
2022-08-14T11:06:52.926Z,22.99
2022-08-14T11:10:25.913Z,23.15
2022-08-14T11:13:59.533Z,23.28
2022-08-14T11:17:38.795Z,23.40
2022-08-14T11:21:17.771Z,23.37
2022-08-14T11:24:54.880Z,23.22
2022-08-14T11:28:47.277Z,23.05
2022-08-14T11:32:11.388Z,22.77
2022-08-14T11:35:48.739Z,22.58
2022-08-14T11:39:34.762Z,22.41
2022-08-14T11:43:08.553Z,22.29
2022-08-14T11:46:57.165Z,22.33
2022-08-14T11:50:36.756Z,22.53
2022-08-14T11:54:06.418Z,23.04
2022-08-14T11:57:38.295Z,23.55
2022-08-14T12:01:14.996Z,24.19
2022-08-14T12:04:52.630Z,24.63
2022-08-14T12:08:38.677Z,24.89
2022-08-14T12:12:47.295Z,24.87
2022-08-14T12:16:24.407Z,25.15
2022-08-14T12:20:09.430Z,25.48
2022-08-14T12:23:30.757Z,25.36
2022-08-14T12:27:07.592Z,25.12
2022-08-14T12:30:48.734Z,24.85
2022-08-14T12:34:44.952Z,24.69
2022-08-14T12:38:54.241Z,24.33
2022-08-14T12:42:34.712Z,24.46
2022-08-14T12:46:27.324Z,25.31
2022-08-14T12:49:54.320Z,26.29
2022-08-14T12:53:45.144Z,26.17
2022-08-14T12:57:19.693Z,26.32
2022-08-14T13:01:14.353Z,26.50
2022-08-14T13:04:36.372Z,26.38
2022-08-14T13:08:33.214Z,26.22
2022-08-14T13:11:59.212Z,26.14
2022-08-14T13:15:40.536Z,26.50
2022-08-14T13:19:38.185Z,26.82
2022-08-14T13:23:31.720Z,26.99
2022-08-14T13:27:00.532Z,27.23
2022-08-14T13:30:32.532Z,27.60
2022-08-14T13:34:07.862Z,27.87
2022-08-14T13:37:48.316Z,28.04
2022-08-14T13:41:31.567Z,27.98
2022-08-14T13:45:02.136Z,27.86
2022-08-14T13:48:36.258Z,27.77
2022-08-14T13:52:14.643Z,28.00
2022-08-14T13:56:01.196Z,28.37
2022-08-14T13:59:38.376Z,28.72
2022-08-14T14:03:10.451Z,28.97
2022-08-14T14:07:14.291Z,29.30
2022-08-14T14:10:39.271Z,29.42
2022-08-14T14:14:50.924Z,29.62
2022-08-14T14:18:29.744Z,29.40
2022-08-14T14:21:58.092Z,28.97
2022-08-14T14:25:57.420Z,28.69
2022-08-14T14:29:46.117Z,28.99
2022-08-14T14:33:42.442Z,29.32
2022-08-14T14:37:04.714Z,29.50
2022-08-14T14:40:54.447Z,29.93
2022-08-14T14:44:25.319Z,29.81
2022-08-14T14:47:59.449Z,30.01
2022-08-14T14:51:31.352Z,30.34
2022-08-14T14:55:09.664Z,30.95
2022-08-14T14:58:46.092Z,31.44
2022-08-14T15:02:33.676Z,31.49
2022-08-14T15:05:58.038Z,30.94
2022-08-14T15:09:34.957Z,30.51
2022-08-14T15:13:11.924Z,30.40
2022-08-14T15:16:48.737Z,30.76
2022-08-14T15:20:43.875Z,31.11
2022-08-14T15:24:28.184Z,31.03
2022-08-14T15:27:54.417Z,30.28
2022-08-14T15:31:48.372Z,29.83
2022-08-14T15:35:15.380Z,29.39
2022-08-14T15:38:52.146Z,29.07
2022-08-14T15:42:47.844Z,28.86
2022-08-14T15:46:10.597Z,28.83
2022-08-14T15:49:54.358Z,28.45
2022-08-14T15:53:31.670Z,28.09
2022-08-14T15:57:09.429Z,27.83
2022-08-14T16:01:03.194Z,27.61
2022-08-14T16:04:45.265Z,27.52
2022-08-14T16:08:24.333Z,27.46
2022-08-14T16:11:53.754Z,27.46
2022-08-14T16:15:28.072Z,27.56
2022-08-14T16:19:23.970Z,27.67
2022-08-14T16:23:00.213Z,27.61
2022-08-14T16:26:43.204Z,27.62
2022-08-14T16:30:32.840Z,27.70
2022-08-14T16:33:59.929Z,27.82
2022-08-14T16:37:34.097Z,27.92
2022-08-14T16:41:23.103Z,28.00
2022-08-14T16:44:47.768Z,27.99
2022-08-14T16:48:56.975Z,28.09
2022-08-14T16:52:44.867Z,27.92
2022-08-14T16:56:23.074Z,27.61
2022-08-14T16:59:57.139Z,27.37
2022-08-14T17:03:24.218Z,27.21
2022-08-14T17:07:18.916Z,27.22
2022-08-14T17:10:44.029Z,27.25
2022-08-14T17:14:17.489Z,27.22
2022-08-14T17:17:58.359Z,27.13
2022-08-14T17:21:38.117Z,26.91
2022-08-14T17:25:09.742Z,26.72
2022-08-14T17:29:22.628Z,26.53
2022-08-14T17:33:23.199Z,26.23
2022-08-14T17:36:51.240Z,25.86
2022-08-14T17:40:25.833Z,25.39
2022-08-14T17:44:33.850Z,24.97
2022-08-14T17:49:15.130Z,24.60
2022-08-14T17:52:40.819Z,24.32
2022-08-14T17:56:04.823Z,24.09
2022-08-14T17:59:44.133Z,23.83
2022-08-14T18:03:50.482Z,23.58
2022-08-14T18:07:16.392Z,23.35
2022-08-14T18:10:59.511Z,23.16
2022-08-14T18:14:32.073Z,22.98
2022-08-14T18:17:58.056Z,22.85
2022-08-14T18:21:57.774Z,22.74
2022-08-14T18:25:22.680Z,22.57
2022-08-14T18:28:59.133Z,22.33
2022-08-14T18:32:33.064Z,22.17
2022-08-14T18:36:48.531Z,22.04
2022-08-14T18:40:17.827Z,21.89
2022-08-14T18:43:59.656Z,21.76
2022-08-14T18:47:25.614Z,21.65
2022-08-14T18:51:02.334Z,21.55
2022-08-14T18:54:37.480Z,21.46
2022-08-14T18:58:28.011Z,21.44
2022-08-14T19:02:30.469Z,21.43
2022-08-14T19:05:54.911Z,21.43
2022-08-14T19:09:57.947Z,21.43
2022-08-14T19:13:48.735Z,21.40
2022-08-14T19:18:14.283Z,21.34
2022-08-14T19:21:56.866Z,21.32
2022-08-14T19:25:47.705Z,21.28
2022-08-14T19:29:25.777Z,21.25
2022-08-14T19:32:57.787Z,21.23
2022-08-14T19:37:05.124Z,21.21
2022-08-14T19:40:47.926Z,21.16
2022-08-14T19:44:20.120Z,21.10
2022-08-14T19:47:57.847Z,21.05
2022-08-14T19:51:32.862Z,20.96
2022-08-14T19:55:19.027Z,20.87
2022-08-14T19:58:55.426Z,20.80
2022-08-14T20:02:29.977Z,20.74
2022-08-14T20:06:18.310Z,20.66
2022-08-14T20:11:03.590Z,20.59
2022-08-14T20:14:09.456Z,20.49
2022-08-14T20:17:31.909Z,20.40
2022-08-14T20:21:08.844Z,20.26
2022-08-14T20:25:35.953Z,20.12
2022-08-14T20:28:57.788Z,19.95
2022-08-14T20:33:00.964Z,19.81
2022-08-14T20:36:29.180Z,19.75
2022-08-14T20:40:23.454Z,19.64
2022-08-14T20:44:28.510Z,19.57
2022-08-14T20:48:10.364Z,19.54
2022-08-14T20:51:47.329Z,19.47
2022-08-14T20:55:41.798Z,19.43
2022-08-14T20:59:28.259Z,19.44
2022-08-14T21:02:55.513Z,19.46
2022-08-14T21:07:22.932Z,19.50
2022-08-14T21:10:44.668Z,19.50
2022-08-14T21:14:21.071Z,19.48
2022-08-14T21:17:48.774Z,19.44
2022-08-14T21:21:41.475Z,19.40
2022-08-14T21:25:10.733Z,19.38
2022-08-14T21:28:43.509Z,19.36
2022-08-14T21:32:33.767Z,19.28
2022-08-14T21:35:59.261Z,19.22
2022-08-14T21:39:33.503Z,19.12
2022-08-14T21:43:18.540Z,19.02
2022-08-14T21:46:55.613Z,18.93
2022-08-14T21:50:40.520Z,18.91
2022-08-14T21:54:32.318Z,18.84
2022-08-14T21:58:03.961Z,18.77
2022-08-14T22:02:01.832Z,18.76
2022-08-14T22:05:41.180Z,18.74
2022-08-14T22:09:02.740Z,18.76
2022-08-14T22:12:57.338Z,18.75
2022-08-14T22:17:00.658Z,18.75
2022-08-14T22:20:12.348Z,18.78
2022-08-14T22:24:02.851Z,18.80
2022-08-14T22:27:55.825Z,18.82
2022-08-14T22:31:42.139Z,18.82
2022-08-14T22:35:09.081Z,18.81
2022-08-14T22:39:02.421Z,18.79
2022-08-14T22:42:24.036Z,18.77
2022-08-14T22:46:20.745Z,18.72
2022-08-14T22:50:31.508Z,18.70
2022-08-14T22:53:44.906Z,18.65
2022-08-14T22:57:20.581Z,18.60
2022-08-14T23:01:22.734Z,18.60
2022-08-14T23:04:54.328Z,18.55
2022-08-14T23:08:58.072Z,18.49
2022-08-14T23:12:29.428Z,18.47
2022-08-14T23:15:51.190Z,18.42
2022-08-14T23:19:33.637Z,18.33
2022-08-14T23:23:22.271Z,18.28
2022-08-14T23:26:49.847Z,18.26
2022-08-14T23:30:34.231Z,18.24
2022-08-14T23:34:00.336Z,18.19
2022-08-14T23:37:36.021Z,18.15
2022-08-14T23:41:45.889Z,18.10
2022-08-14T23:45:14.148Z,18.11
2022-08-14T23:48:52.447Z,18.04
2022-08-14T23:52:55.609Z,18.02
2022-08-14T23:56:15.153Z,17.96
